createdAt,value
2019-04-07T00:02:47.760Z,920.8
2019-04-07T00:05:41.888Z,921
2019-04-07T00:08:36.898Z,921
2019-04-07T00:11:32.529Z,920.9
2019-04-07T00:14:27.532Z,920.8
2019-04-07T00:17:21.423Z,920.9
2019-04-07T00:20:16.410Z,920.9
2019-04-07T00:23:11.922Z,921
2019-04-07T00:26:06.720Z,920.9
2019-04-07T00:29:02.311Z,921
2019-04-07T00:31:56.430Z,920.9
2019-04-07T00:34:51.022Z,920.8
2019-04-07T00:37:46.985Z,920.8
2019-04-07T00:40:41.069Z,921
2019-04-07T00:43:36.476Z,920.7
2019-04-07T00:46:30.859Z,921
2019-04-07T00:49:26.126Z,921
2019-04-07T00:52:22.416Z,920.8
2019-04-07T00:55:15.611Z,920.9
2019-04-07T00:58:10.604Z,921
2019-04-07T01:01:06.680Z,920.9
2019-04-07T01:04:01.342Z,920.8
2019-04-07T01:06:56.290Z,920.9
2019-04-07T01:09:51.029Z,920.9
2019-04-07T01:12:45.985Z,921
2019-04-07T01:15:40.911Z,921
2019-04-07T01:18:36.193Z,921
2019-04-07T01:21:30.633Z,921
2019-04-07T01:24:25.531Z,921
2019-04-07T01:27:20.677Z,921
2019-04-07T01:30:16.321Z,921.1
2019-04-07T01:33:10.571Z,921
2019-04-07T01:36:05.541Z,919.9
2019-04-07T01:39:01.723Z,920.8
2019-04-07T01:41:54.714Z,920.9
2019-04-07T01:44:50.933Z,921
2019-04-07T01:47:45.036Z,920.9
2019-04-07T01:50:39.652Z,920.9
2019-04-07T01:53:35.813Z,921
2019-04-07T01:56:31.454Z,920.9
2019-04-07T01:59:25.637Z,921
2019-04-07T02:02:20.450Z,920.7
2019-04-07T02:05:15.787Z,920.9
2019-04-07T02:08:10.055Z,920.8
2019-04-07T02:11:05.205Z,920.7
2019-04-07T02:14:00.723Z,920.8
2019-04-07T02:16:55.633Z,920.9
2019-04-07T02:19:50.483Z,920.9
2019-04-07T02:22:45.267Z,920.9
2019-04-07T02:25:39.217Z,920.9
2019-04-07T02:28:36.031Z,920.9
2019-04-07T02:31:30.008Z,920.8
2019-04-07T02:34:23.866Z,920.8
2019-04-07T02:37:20.848Z,920.8
2019-04-07T02:40:14.431Z,920.7
2019-04-07T02:43:09.202Z,920.9
2019-04-07T02:46:04.656Z,920.9
2019-04-07T02:48:58.633Z,920.9
2019-04-07T02:51:54.529Z,920.8
2019-04-07T02:54:48.288Z,920.9
2019-04-07T02:57:44.819Z,920.9
2019-04-07T03:00:39.699Z,921
2019-04-07T03:03:34.637Z,921
2019-04-07T03:06:54.823Z,921.1
2019-04-07T03:09:22.903Z,921
2019-04-07T03:12:19.484Z,921.1
2019-04-07T03:15:13.349Z,921.1
2019-04-07T03:18:07.660Z,921.1
2019-04-07T03:21:03.056Z,921.1
2019-04-07T03:23:57.230Z,920.9
2019-04-07T03:26:53.247Z,921
2019-04-07T03:29:47.774Z,921
2019-04-07T03:32:55.425Z,921.1
2019-04-07T03:35:52.959Z,921
2019-04-07T03:38:32.171Z,921
2019-04-07T03:41:26.486Z,921
2019-04-07T03:44:21.070Z,921
2019-04-07T03:47:16.990Z,921.2
2019-04-07T03:50:10.914Z,921.1
2019-04-07T03:53:06.464Z,921.1
2019-04-07T03:56:00.581Z,921.1
2019-04-07T03:58:56.157Z,921.2
2019-04-07T04:01:50.369Z,921
2019-04-07T04:04:46.011Z,921
2019-04-07T04:07:42.206Z,921.1
2019-04-07T04:10:35.121Z,921
2019-04-07T04:13:30.969Z,921.1
2019-04-07T04:16:26.022Z,921.1
2019-04-07T04:19:20.669Z,921.1
2019-04-07T04:22:14.849Z,921.3
2019-04-07T04:25:10.508Z,921.2
2019-04-07T04:28:05.447Z,921.2
2019-04-07T04:31:00.086Z,921.3
2019-04-07T04:33:55.915Z,921.1
2019-04-07T04:36:50.389Z,921.3
2019-04-07T04:39:44.926Z,921.3
2019-04-07T04:42:38.807Z,921.3
2019-04-07T04:45:34.528Z,921.3
2019-04-07T04:48:28.630Z,921.4
2019-04-07T04:51:24.317Z,921.4
2019-04-07T04:54:19.668Z,921.5
2019-04-07T04:57:14.835Z,921.6
2019-04-07T05:00:08.155Z,920.4
2019-04-07T05:03:03.473Z,921.7
2019-04-07T05:05:59.187Z,921.6
2019-04-07T05:08:52.830Z,921.6
2019-04-07T05:11:48.742Z,921.7
2019-04-07T05:14:43.200Z,921.8
2019-04-07T05:17:39.134Z,921.7
2019-04-07T05:20:33.375Z,921.8
2019-04-07T05:23:27.404Z,921.7
2019-04-07T05:26:24.294Z,921.7
2019-04-07T05:29:18.887Z,921.9
2019-04-07T05:32:12.898Z,921.9
2019-04-07T05:35:09.082Z,921.9
2019-04-07T05:38:09.533Z,921.9
2019-04-07T05:40:57.819Z,921.9
2019-04-07T05:43:53.721Z,922
2019-04-07T05:46:50.224Z,921.8
2019-04-07T05:49:42.148Z,922
2019-04-07T05:52:41.242Z,922
2019-04-07T05:55:32.370Z,922
2019-04-07T05:58:28.113Z,922
2019-04-07T06:01:24.919Z,922.1
2019-04-07T06:04:20.566Z,922
2019-04-07T06:07:11.802Z,922
2019-04-07T06:10:06.818Z,921.9
2019-04-07T06:13:01.884Z,922.2
2019-04-07T06:15:57.830Z,922.1
2019-04-07T06:18:52.719Z,922.1
2019-04-07T06:21:50.222Z,922.1
2019-04-07T06:24:41.888Z,922.1
2019-04-07T06:27:36.867Z,922.2
2019-04-07T06:30:38.114Z,922.1
2019-04-07T06:33:28.484Z,922.2
2019-04-07T06:36:27.157Z,922.2
2019-04-07T06:39:21.599Z,922.3
2019-04-07T06:42:13.360Z,922.3
2019-04-07T06:45:07.024Z,922.3
2019-04-07T06:48:10.401Z,922.2
2019-04-07T06:51:02.987Z,922
2019-04-07T06:53:52.812Z,922.3
2019-04-07T06:56:47.075Z,922.2
2019-04-07T06:59:50.012Z,922.3
2019-04-07T07:02:38.902Z,922.3
2019-04-07T07:08:28.627Z,922.1
2019-04-07T07:11:42.264Z,922.1
2019-04-07T07:14:47.534Z,922.3
2019-04-07T07:17:22.565Z,922.3
2019-04-07T07:20:07.714Z,922.3
2019-04-07T07:23:04.912Z,922.3
2019-04-07T07:26:04.510Z,922.3
2019-04-07T07:28:56.066Z,922.4
2019-04-07T07:32:04.115Z,922.4
2019-04-07T07:34:44.079Z,922.3
2019-04-07T07:37:39.162Z,922.4
2019-04-07T07:40:35.853Z,922.4
2019-04-07T07:43:30.732Z,922.4
2019-04-07T07:46:24.533Z,922.4
2019-04-07T07:49:20.574Z,922.4
2019-04-07T07:52:22.297Z,922.4
2019-04-07T07:55:11.951Z,922.4
2019-04-07T07:58:04.781Z,922.3
2019-04-07T08:01:01.975Z,922.4
2019-04-07T08:03:56.423Z,922.5
2019-04-07T08:06:52.374Z,922.5
2019-04-07T08:09:45.797Z,922.5
2019-04-07T08:12:43.677Z,922.5
2019-04-07T08:15:36.881Z,922.6
2019-04-07T08:18:31.541Z,922.5
2019-04-07T08:21:29.241Z,922.6
2019-04-07T08:24:23.281Z,922.6
2019-04-07T08:27:17.467Z,922.5
2019-04-07T08:30:14.508Z,922.7
2019-04-07T08:33:09.727Z,922.6
2019-04-07T08:36:08.856Z,922.7
2019-04-07T08:39:00.617Z,922.6
2019-04-07T08:41:54.577Z,922.7
2019-04-07T08:44:51.888Z,922.7
2019-04-07T08:47:53.798Z,922.7
2019-04-07T08:50:42.515Z,922.8
2019-04-07T08:53:36.687Z,922.8
2019-04-07T08:56:34.068Z,922.9
2019-04-07T08:59:29.253Z,922.8
2019-04-07T09:02:32.395Z,922.5
2019-04-07T09:05:31.508Z,922.9
2019-04-07T09:08:17.217Z,922.7
2019-04-07T09:11:13.211Z,922.9
2019-04-07T09:14:09.027Z,923
2019-04-07T09:17:01.355Z,922.9
2019-04-07T09:19:58.561Z,922.9
2019-04-07T09:22:58.557Z,922.8
2019-04-07T09:25:49.086Z,922.8
2019-04-07T09:28:45.562Z,922.8
2019-04-07T09:31:40.915Z,922.8
2019-04-07T09:34:35.886Z,922.7
2019-04-07T09:37:31.403Z,922.8
2019-04-07T09:40:28.113Z,922.8
2019-04-07T09:43:22.828Z,922.8
2019-04-07T09:46:19.182Z,922.8
2019-04-07T09:49:13.862Z,922.7
2019-04-07T09:52:18.009Z,922.6
2019-04-07T09:55:10.603Z,922.9
2019-04-07T09:58:00.173Z,922.7
2019-04-07T10:00:59.881Z,922.8
2019-04-07T10:03:51.437Z,922.7
2019-04-07T10:06:49.897Z,922.8
2019-04-07T10:09:42.645Z,922.8
2019-04-07T10:12:38.266Z,922.7
2019-04-07T10:15:36.145Z,922.8
2019-04-07T10:18:36.083Z,922.8
2019-04-07T10:21:26.207Z,922.8
2019-04-07T10:24:20.695Z,922.7
2019-04-07T10:27:19.081Z,922.6
2019-04-07T10:30:11.875Z,922.3
2019-04-07T10:33:09.350Z,922.8
2019-04-07T10:36:03.619Z,922.8
2019-04-07T10:38:59.009Z,922.7
2019-04-07T10:41:55.859Z,922.7
2019-04-07T10:44:52.379Z,922.7
2019-04-07T10:47:46.725Z,922.7
2019-04-07T10:50:41.437Z,922.7
2019-04-07T10:53:37.717Z,922.8
2019-04-07T10:56:32.715Z,921.5
2019-04-07T10:59:31.029Z,922.7
2019-04-07T11:02:27.596Z,922.7
2019-04-07T11:05:19.627Z,922.5
2019-04-07T11:08:16.918Z,922.7
2019-04-07T11:11:10.950Z,922.7
2019-04-07T11:14:09.569Z,922.7
2019-04-07T11:17:04.872Z,922.5
2019-04-07T11:19:57.927Z,922.7
2019-04-07T11:22:55.063Z,922.6
2019-04-07T11:25:50.242Z,922.7
2019-04-07T11:28:45.329Z,922.6
2019-04-07T11:31:41.236Z,922.6
2019-04-07T11:34:36.951Z,922.6
2019-04-07T11:37:31.827Z,922.4
2019-04-07T11:40:41.814Z,922.5
2019-04-07T11:43:25.445Z,922.5
2019-04-07T11:46:19.489Z,922.6
2019-04-07T11:49:14.467Z,922.6
2019-04-07T11:52:09.918Z,922.5
2019-04-07T11:55:07.440Z,922.6
2019-04-07T11:58:34.662Z,922.6
2019-04-07T12:00:59.187Z,922.6
2019-04-07T12:03:57.082Z,922.6
2019-04-07T12:06:50.198Z,922.5
2019-04-07T12:09:43.826Z,922.6
2019-04-07T12:12:40.618Z,922.6
2019-04-07T12:15:35.458Z,922.6
2019-04-07T12:18:32.872Z,922.6
2019-04-07T12:21:28.062Z,922.6
2019-04-07T12:24:31.066Z,922.6
2019-04-07T12:27:22.549Z,922.5
2019-04-07T12:30:13.359Z,922.5
2019-04-07T12:33:10.222Z,922.5
2019-04-07T12:36:03.958Z,922.5
2019-04-07T12:38:59.232Z,922.5
2019-04-07T12:42:06.216Z,922.5
2019-04-07T12:44:51.432Z,922.5
2019-04-07T12:47:47.697Z,922.4
2019-04-07T12:50:41.550Z,922.4
2019-04-07T12:53:37.380Z,922.5
2019-04-07T12:56:34.855Z,922.5
2019-04-07T12:59:29.850Z,922.5
2019-04-07T13:02:26.086Z,922.3
2019-04-07T13:05:21.698Z,922.5
2019-04-07T13:08:15.350Z,922.3
2019-04-07T13:11:48.824Z,922.5
2019-04-07T13:14:10.422Z,922.5
2019-04-07T13:17:05.475Z,922.5
2019-04-07T13:19:59.404Z,922.4
2019-04-07T13:22:53.808Z,922.3
2019-04-07T13:25:57.819Z,922.5
2019-04-07T13:28:45.270Z,922.4
2019-04-07T13:31:40.276Z,922.5
2019-04-07T13:34:35.762Z,922.5
2019-04-07T13:37:31.625Z,922
2019-04-07T13:40:26.945Z,922.6
2019-04-07T13:43:23.777Z,922.4
2019-04-07T13:46:38.854Z,922.2
2019-04-07T13:49:15.852Z,922.5
2019-04-07T13:52:10.777Z,922.5
2019-04-07T13:55:09.364Z,922.5
2019-04-07T13:58:02.330Z,922.5
2019-04-07T14:00:57.334Z,922.4
2019-04-07T14:03:59.075Z,922.5
2019-04-07T14:06:49.153Z,922.6
2019-04-07T14:09:42.387Z,922.6
2019-04-07T14:12:38.955Z,922.6
2019-04-07T14:15:33.022Z,922.7
2019-04-07T14:18:29.674Z,922.7
2019-04-07T14:21:23.980Z,922.6
2019-04-07T14:24:20.406Z,922.8
2019-04-07T14:27:15.800Z,922.8
2019-04-07T14:30:11.332Z,922.7
2019-04-07T14:33:07.780Z,922.8
2019-04-07T14:36:01.603Z,922.8
2019-04-07T14:38:58.843Z,922.8
2019-04-07T14:42:11.257Z,922.9
2019-04-07T14:44:47.801Z,922.9
2019-04-07T14:47:46.491Z,922.9
2019-04-07T14:50:41.767Z,922.9
2019-04-07T14:53:34.204Z,922.9
2019-04-07T14:56:29.822Z,922.8
2019-04-07T14:59:30.303Z,922.9
2019-04-07T15:02:20.516Z,922.8
2019-04-07T15:05:25.676Z,922.8
2019-04-07T15:08:12.301Z,922.9
2019-04-07T15:11:06.775Z,922.7
2019-04-07T15:14:04.501Z,923
2019-04-07T15:16:59.328Z,922.9
2019-04-07T15:19:53.897Z,923
2019-04-07T15:22:50.036Z,921.7
2019-04-07T15:25:47.647Z,923
2019-04-07T15:28:39.246Z,923.1
2019-04-07T15:31:34.680Z,923
2019-04-07T15:34:30.389Z,923.1
2019-04-07T15:37:25.803Z,923.1
2019-04-07T15:40:21.819Z,923.2
2019-04-07T15:43:17.387Z,923.1
2019-04-07T15:46:19.913Z,923.2
2019-04-07T15:52:11.503Z,923.2
2019-04-07T15:55:00.709Z,923.2
2019-04-07T15:57:59.915Z,923.2
2019-04-07T16:00:49.358Z,923.2
2019-04-07T16:03:55.061Z,923.2
2019-04-07T16:06:40.782Z,923.1
2019-04-07T16:09:58.425Z,923.2
2019-04-07T16:12:54.387Z,923.3
2019-04-07T16:15:27.555Z,923.1
2019-04-07T16:18:23.448Z,923.2
2019-04-07T16:24:12.175Z,923.3
2019-04-07T16:27:09.353Z,923.4
2019-04-07T16:30:03.682Z,923.5
2019-04-07T16:33:05.908Z,923.5
2019-04-07T16:35:57.889Z,923.5
2019-04-07T16:38:48.927Z,923.5
2019-04-07T16:41:50.353Z,923.6
2019-04-07T16:44:44.873Z,923.5
2019-04-07T16:47:38.474Z,923.6
2019-04-07T16:50:30.357Z,923.6
2019-04-07T16:53:28.260Z,923.7
2019-04-07T16:56:23.744Z,923.7
2019-04-07T16:59:17.261Z,923.7
2019-04-07T17:02:19.523Z,923.9
2019-04-07T17:05:10.205Z,924
2019-04-07T17:08:02.437Z,924
2019-04-07T17:10:57.611Z,924.1
2019-04-07T17:13:53.566Z,924.1
2019-04-07T17:16:49.034Z,924.2
2019-04-07T17:19:44.293Z,924.3
2019-04-07T17:22:38.683Z,924.2
2019-04-07T17:25:36.388Z,924.1
2019-04-07T17:28:29.807Z,924
2019-04-07T17:31:33.568Z,924.3
2019-04-07T17:37:17.608Z,924.3
2019-04-07T17:40:16.007Z,924.3
2019-04-07T17:43:08.075Z,924.5
2019-04-07T17:46:03.254Z,924.5
2019-04-07T17:49:00.126Z,924.6
2019-04-07T17:51:51.758Z,924.6
2019-04-07T17:54:54.698Z,924.6
2019-04-07T17:57:41.650Z,923.2
2019-04-07T18:00:37.713Z,924.4
2019-04-07T18:03:32.078Z,924.5
2019-04-07T18:06:34.361Z,924.3
2019-04-07T18:09:25.137Z,924.7
2019-04-07T18:12:18.707Z,924.6
2019-04-07T18:15:19.093Z,924.7
2019-04-07T18:18:09.024Z,924.7
2019-04-07T18:21:03.379Z,924.7
2019-04-07T18:24:02.394Z,924.8
2019-04-07T18:26:55.576Z,924.9
2019-04-07T18:29:50.911Z,925
2019-04-07T18:32:47.076Z,925.1
2019-04-07T18:35:39.300Z,925.2
2019-04-07T18:38:34.994Z,925.3
2019-04-07T18:41:36.592Z,925.4
2019-04-07T18:44:25.584Z,925.5
2019-04-07T18:47:24.637Z,925.6
2019-04-07T18:50:16.418Z,925.3
2019-04-07T18:53:10.688Z,925.4
2019-04-07T18:56:11.795Z,923.8
2019-04-07T18:59:00.290Z,925.3
2019-04-07T19:01:56.066Z,925.4
2019-04-07T19:04:50.738Z,925.3
2019-04-07T19:07:49.968Z,925.5
2019-04-07T19:10:44.998Z,925.5
2019-04-07T19:13:36.492Z,925.4
2019-04-07T19:16:30.783Z,925.7
2019-04-07T19:19:28.107Z,925.7
2019-04-07T19:22:22.984Z,925.6
2019-04-07T19:25:17.556Z,925.6
2019-04-07T19:28:12.034Z,925.6
2019-04-07T19:31:07.271Z,925.6
2019-04-07T19:34:05.047Z,925.6
2019-04-07T19:36:56.606Z,925.5
2019-04-07T19:40:04.231Z,925.7
2019-04-07T19:42:52.048Z,925.6
2019-04-07T19:45:42.018Z,925.7
2019-04-07T19:48:43.111Z,925.8
2019-04-07T19:51:32.603Z,925.8
2019-04-07T19:54:28.022Z,925.8
2019-04-07T19:57:24.336Z,925.7
2019-04-07T20:00:29.148Z,925.8
2019-04-07T20:03:14.233Z,925.8
2019-04-07T20:06:07.824Z,925.8
2019-04-07T20:09:12.965Z,925.8
2019-04-07T20:12:06.393Z,925.6
2019-04-07T20:15:18.141Z,925.7
2019-04-07T20:17:56.614Z,925.7
2019-04-07T20:20:45.268Z,925.7
2019-04-07T20:23:39.220Z,925.7
2019-04-07T20:26:33.328Z,925.8
2019-04-07T20:29:41.844Z,925.9
2019-04-07T20:32:26.667Z,925.9
2019-04-07T20:35:19.341Z,925.9
2019-04-07T20:38:13.558Z,925.9
2019-04-07T20:41:17.266Z,925.8
2019-04-07T20:44:05.781Z,925.7
2019-04-07T20:47:01.955Z,925.7
2019-04-07T20:49:53.923Z,925.7
2019-04-07T20:52:49.013Z,925.5
2019-04-07T20:55:45.546Z,925.7
2019-04-07T20:59:08.604Z,925.7
2019-04-07T21:01:34.312Z,925.8
2019-04-07T21:04:29.602Z,925.7
2019-04-07T21:07:29.909Z,925.7
2019-04-07T21:10:19.666Z,925.8
2019-04-07T21:13:19.667Z,925.7
2019-04-07T21:16:10.544Z,925.8
2019-04-07T21:19:09.894Z,925.8
2019-04-07T21:22:01.623Z,925.8
2019-04-07T21:24:55.882Z,925.9
2019-04-07T21:27:50.926Z,925.9
2019-04-07T21:30:45.157Z,925.9
2019-04-07T21:33:41.152Z,925.9
2019-04-07T21:36:42.139Z,926
2019-04-07T21:39:34.609Z,925.8
2019-04-07T21:42:26.080Z,925.3
2019-04-07T21:45:54.413Z,926
2019-04-07T21:48:16.417Z,926.1
2019-04-07T21:51:18.253Z,926.1
2019-04-07T21:54:06.318Z,926.1
2019-04-07T21:57:00.907Z,926
2019-04-07T21:59:59.687Z,926
2019-04-07T22:02:50.968Z,926.2
2019-04-07T22:05:46.170Z,926.2
2019-04-07T22:08:47.403Z,926.2
2019-04-07T22:11:37.045Z,926.2
2019-04-07T22:14:31.187Z,926.2
2019-04-07T22:17:26.395Z,926.2
2019-04-07T22:20:23.238Z,926.1
2019-04-07T22:23:17.353Z,926.1
2019-04-07T22:26:20.633Z,925.9
2019-04-07T22:29:07.831Z,926.2
2019-04-07T22:32:01.838Z,926
2019-04-07T22:34:58.026Z,926.1
2019-04-07T22:37:52.989Z,926.1
2019-04-07T22:40:47.311Z,925.9
2019-04-07T22:43:42.277Z,926
2019-04-07T22:46:38.061Z,926.2
2019-04-07T22:49:33.923Z,926.2
2019-04-07T22:52:28.501Z,926.1
2019-04-07T22:55:23.495Z,926.2
2019-04-07T22:58:18.743Z,926.2
2019-04-07T23:01:12.940Z,926.2
2019-04-07T23:04:08.189Z,926.1
2019-04-07T23:07:04.402Z,926.3
2019-04-07T23:09:58.643Z,926.1
2019-04-07T23:12:53.603Z,926.2
2019-04-07T23:15:50.374Z,926.2
2019-04-07T23:18:44.767Z,926.3
2019-04-07T23:21:39.915Z,926.4
2019-04-07T23:24:35.059Z,926.4
2019-04-07T23:27:30.046Z,926.3
2019-04-07T23:30:24.315Z,926.5
2019-04-07T23:33:20.309Z,926.5
2019-04-07T23:36:14.379Z,926.5
2019-04-07T23:39:11.311Z,926.6
2019-04-07T23:42:07.258Z,926.6
2019-04-07T23:44:59.614Z,926.5
2019-04-07T23:47:55.322Z,926.5
2019-04-07T23:50:50.506Z,926.3
2019-04-07T23:53:45.629Z,926.6
2019-04-07T23:56:40.131Z,926.6
2019-04-07T23:59:35.333Z,926.5
